createdAt,value
2023-03-20T00:02:31.442Z,109.10
2023-03-20T00:04:59.479Z,107.10
2023-03-20T00:07:27.684Z,100.10
2023-03-20T00:12:29.403Z,105.60
2023-03-20T00:15:01.107Z,103.40
2023-03-20T00:17:29.635Z,107.90
2023-03-20T00:19:57.670Z,95.00
2023-03-20T00:22:25.802Z,108.00
2023-03-20T00:24:54.498Z,104.00
2023-03-20T00:27:40.363Z,103.50
2023-03-20T00:30:29.281Z,93.70
2023-03-20T00:32:59.209Z,92.60
2023-03-20T00:35:30.472Z,88.30
2023-03-20T00:38:03.710Z,80.30
2023-03-20T00:40:32.126Z,85.50
2023-03-20T00:43:02.536Z,104.80
2023-03-20T00:45:32.122Z,96.80
2023-03-20T00:48:01.929Z,97.10
2023-03-20T00:50:31.172Z,87.40
2023-03-20T00:53:00.759Z,81.30
2023-03-20T00:55:32.846Z,87.60
2023-03-20T00:58:07.647Z,81.70
2023-03-20T01:00:44.494Z,86.60
2023-03-20T01:03:20.853Z,87.60
2023-03-20T01:05:50.691Z,76.70
2023-03-20T01:08:26.608Z,82.20
2023-03-20T01:10:57.300Z,83.90
2023-03-20T01:13:29.463Z,72.00
2023-03-20T01:16:01.676Z,78.30
2023-03-20T01:18:30.646Z,76.00
2023-03-20T01:20:58.882Z,81.90
2023-03-20T01:23:27.736Z,84.00
2023-03-20T01:25:57.532Z,81.60
2023-03-20T01:28:25.836Z,83.70
2023-03-20T01:30:54.309Z,84.40
2023-03-20T01:33:42.439Z,80.20
2023-03-20T01:36:11.982Z,92.90
2023-03-20T01:38:42.531Z,85.50
2023-03-20T01:41:16.743Z,89.60
2023-03-20T01:43:45.959Z,96.00
2023-03-20T01:49:23.459Z,90.90
2023-03-20T01:51:58.872Z,109.80
2023-03-20T01:54:37.929Z,100.00
2023-03-20T01:57:14.142Z,115.20
2023-03-20T01:59:47.084Z,120.80
2023-03-20T02:02:17.613Z,111.70
2023-03-20T02:04:47.121Z,115.70
2023-03-20T02:07:18.670Z,106.60
2023-03-20T02:10:12.918Z,98.40
2023-03-20T02:13:05.916Z,92.50
2023-03-20T02:15:59.005Z,87.70
2023-03-20T02:18:46.015Z,88.70
2023-03-20T02:21:41.108Z,92.70
2023-03-20T02:24:46.921Z,95.30
2023-03-20T02:27:24.909Z,94.80
2023-03-20T02:30:02.901Z,81.10
2023-03-20T02:33:09.658Z,98.60
2023-03-20T02:35:41.207Z,90.50
2023-03-20T02:38:21.742Z,98.90
2023-03-20T02:40:57.729Z,91.00
2023-03-20T02:43:54.477Z,100.40
2023-03-20T02:46:25.962Z,89.00
2023-03-20T02:49:03.991Z,87.10
2023-03-20T02:51:38.171Z,99.70
2023-03-20T02:54:37.034Z,84.80
2023-03-20T02:57:08.608Z,72.40
2023-03-20T02:59:38.031Z,67.40
2023-03-20T03:02:12.646Z,68.70
2023-03-20T03:04:48.073Z,68.80
2023-03-20T03:07:17.977Z,72.40
2023-03-20T03:09:54.145Z,69.10
2023-03-20T03:12:24.872Z,75.70
2023-03-20T03:14:54.889Z,79.50
2023-03-20T03:17:25.285Z,76.90
2023-03-20T03:19:56.055Z,74.70
2023-03-20T03:22:24.742Z,72.90
2023-03-20T03:24:53.880Z,72.00
2023-03-20T03:27:37.145Z,92.60
2023-03-20T03:32:39.877Z,86.40
2023-03-20T03:35:11.506Z,91.30
2023-03-20T03:37:44.938Z,94.60
2023-03-20T03:40:27.263Z,81.10
2023-03-20T03:43:01.793Z,67.90
2023-03-20T03:45:36.461Z,79.80
2023-03-20T03:48:24.113Z,85.30
2023-03-20T03:50:56.978Z,87.30
2023-03-20T03:53:31.192Z,63.50
2023-03-20T03:56:02.233Z,62.80
2023-03-20T03:58:36.386Z,57.90
2023-03-20T04:01:06.889Z,68.50
2023-03-20T04:03:38.410Z,64.40
2023-03-20T04:06:07.341Z,63.20
2023-03-20T04:08:37.319Z,59.40
2023-03-20T04:11:05.869Z,61.90
2023-03-20T04:13:34.407Z,60.20
2023-03-20T04:16:02.959Z,56.10
2023-03-20T04:18:33.256Z,58.50
2023-03-20T04:21:01.921Z,58.60
2023-03-20T04:23:30.243Z,68.70
2023-03-20T04:26:00.179Z,65.80
2023-03-20T04:28:29.483Z,61.40
2023-03-20T04:31:12.970Z,66.90
2023-03-20T04:33:56.895Z,69.20
2023-03-20T04:36:42.274Z,67.60
2023-03-20T04:39:12.860Z,71.80
2023-03-20T04:41:41.207Z,73.50
2023-03-20T04:44:12.912Z,75.40
2023-03-20T04:46:43.634Z,72.80
2023-03-20T04:49:23.676Z,69.30
2023-03-20T04:51:52.548Z,66.20
2023-03-20T04:54:36.893Z,72.90
2023-03-20T04:57:05.675Z,74.60
2023-03-20T04:59:35.041Z,66.70
2023-03-20T05:02:06.656Z,77.00
2023-03-20T05:04:34.979Z,70.90
2023-03-20T05:07:03.608Z,72.60
2023-03-20T05:09:42.423Z,78.90
2023-03-20T05:12:14.385Z,76.80
2023-03-20T05:15:03.537Z,78.30
2023-03-20T05:17:56.582Z,83.30
2023-03-20T05:20:56.241Z,87.60
2023-03-20T05:23:45.207Z,91.50
2023-03-20T05:26:32.536Z,90.90
2023-03-20T05:29:06.756Z,84.40
2023-03-20T05:32:04.467Z,90.70
2023-03-20T05:34:53.046Z,79.00
2023-03-20T05:37:28.254Z,83.00
2023-03-20T05:40:07.814Z,104.60
2023-03-20T05:42:44.855Z,94.70
2023-03-20T05:45:33.117Z,98.60
2023-03-20T05:48:33.929Z,92.30
2023-03-20T05:51:27.936Z,72.40
2023-03-20T05:54:03.122Z,75.60
2023-03-20T05:56:44.723Z,70.60
2023-03-20T05:59:24.195Z,63.00
2023-03-20T06:02:15.728Z,64.00
2023-03-20T06:07:30.132Z,62.00
2023-03-20T06:10:12.859Z,59.80
2023-03-20T06:12:44.134Z,58.10
2023-03-20T06:15:13.393Z,54.40
2023-03-20T06:17:45.479Z,58.10
2023-03-20T06:20:16.332Z,60.10
2023-03-20T06:22:45.594Z,59.70
2023-03-20T06:25:20.173Z,63.40
2023-03-20T06:27:48.750Z,65.20
2023-03-20T06:30:22.886Z,65.00
2023-03-20T06:32:53.039Z,73.20
2023-03-20T06:35:21.683Z,64.30
2023-03-20T06:37:51.049Z,60.30
2023-03-20T06:40:25.695Z,68.20
2023-03-20T06:42:57.275Z,62.30
2023-03-20T06:45:30.139Z,65.00
2023-03-20T06:48:09.035Z,65.90
2023-03-20T06:50:37.819Z,70.30
2023-03-20T06:53:06.840Z,66.00
2023-03-20T06:55:43.889Z,65.80
2023-03-20T06:58:12.657Z,69.10
2023-03-20T07:00:47.112Z,77.80
2023-03-20T07:03:16.863Z,80.80
2023-03-20T07:05:47.055Z,78.30
2023-03-20T07:08:15.329Z,69.50
2023-03-20T07:10:43.896Z,73.60
2023-03-20T07:13:16.728Z,68.60
2023-03-20T07:16:04.826Z,72.00
2023-03-20T07:18:40.180Z,69.00
2023-03-20T07:21:09.109Z,68.50
2023-03-20T07:23:38.466Z,68.70
2023-03-20T07:26:07.118Z,81.50
2023-03-20T07:28:40.796Z,68.00
2023-03-20T07:31:40.331Z,72.10
2023-03-20T07:34:26.810Z,64.30
2023-03-20T07:36:56.701Z,63.70
2023-03-20T07:39:27.062Z,63.50
2023-03-20T07:42:04.840Z,60.20
2023-03-20T07:44:44.585Z,53.50
2023-03-20T07:47:13.781Z,45.00
2023-03-20T07:49:42.708Z,42.50
2023-03-20T07:54:45.743Z,35.40
2023-03-20T07:57:16.892Z,30.70
2023-03-20T07:59:44.899Z,33.20
2023-03-20T08:02:16.362Z,28.90
2023-03-20T08:04:49.169Z,18.00
2023-03-20T08:07:18.836Z,16.80
2023-03-20T08:09:46.965Z,20.50
2023-03-20T08:12:15.014Z,23.30
2023-03-20T08:14:44.359Z,24.40
2023-03-20T08:17:15.837Z,16.40
2023-03-20T08:19:45.966Z,17.80
2023-03-20T08:22:13.924Z,20.00
2023-03-20T08:24:42.334Z,21.90
2023-03-20T08:27:10.975Z,18.40
2023-03-20T08:29:39.327Z,25.20
2023-03-20T08:32:14.282Z,18.50
2023-03-20T08:34:42.260Z,18.90
2023-03-20T08:37:16.675Z,20.70
2023-03-20T08:39:45.024Z,19.80
2023-03-20T08:42:15.788Z,22.10
2023-03-20T08:44:48.614Z,19.30
2023-03-20T08:47:19.516Z,23.20
2023-03-20T08:49:48.407Z,21.40
2023-03-20T08:52:16.377Z,19.00
2023-03-20T08:54:44.953Z,20.30
2023-03-20T08:57:20.307Z,17.00
2023-03-20T08:59:48.382Z,18.90
2023-03-20T09:02:16.804Z,20.50
2023-03-20T09:04:45.040Z,21.10
2023-03-20T09:07:13.099Z,23.40
2023-03-20T09:09:41.512Z,20.90
2023-03-20T09:12:09.822Z,21.20
2023-03-20T09:14:38.590Z,18.40
2023-03-20T09:17:06.717Z,22.30
2023-03-20T09:19:39.721Z,19.00
2023-03-20T09:22:07.712Z,17.00
2023-03-20T09:24:35.870Z,16.60
2023-03-20T09:27:03.966Z,17.00
2023-03-20T09:29:32.642Z,19.40
2023-03-20T09:32:03.478Z,16.10
2023-03-20T09:34:31.850Z,16.80
2023-03-20T09:37:02.461Z,18.80
2023-03-20T09:39:32.932Z,19.40
2023-03-20T09:42:08.235Z,14.50
2023-03-20T09:44:52.432Z,19.70
2023-03-20T09:47:41.345Z,19.60
2023-03-20T09:50:29.592Z,18.70
2023-03-20T09:53:20.966Z,19.30
2023-03-20T09:55:49.566Z,20.20
2023-03-20T09:58:24.008Z,20.10
2023-03-20T10:00:56.996Z,18.10
2023-03-20T10:03:33.086Z,15.10
2023-03-20T10:06:03.714Z,15.50
2023-03-20T10:08:34.183Z,18.00
2023-03-20T10:11:36.799Z,18.60
2023-03-20T10:14:13.934Z,18.20
2023-03-20T10:17:08.338Z,23.10
2023-03-20T10:19:44.644Z,17.00
2023-03-20T10:22:25.877Z,19.00
2023-03-20T10:24:58.170Z,14.90
2023-03-20T10:27:32.774Z,17.10
2023-03-20T10:30:21.371Z,16.70
2023-03-20T10:33:03.307Z,20.30
2023-03-20T10:35:39.915Z,21.60
2023-03-20T10:38:36.297Z,17.10
2023-03-20T10:41:04.664Z,17.30
2023-03-20T10:43:38.652Z,20.80
2023-03-20T10:46:18.956Z,20.40
2023-03-20T10:48:49.831Z,19.90
2023-03-20T10:51:22.483Z,22.30
2023-03-20T10:53:54.414Z,18.70
2023-03-20T10:56:30.829Z,20.30
2023-03-20T10:59:20.198Z,22.00
2023-03-20T11:01:54.881Z,21.30
2023-03-20T11:04:23.485Z,19.20
2023-03-20T11:07:01.397Z,21.80
2023-03-20T11:09:33.028Z,21.20
2023-03-20T11:12:04.913Z,18.50
2023-03-20T11:14:39.358Z,21.70
2023-03-20T11:17:07.306Z,19.70
2023-03-20T11:19:39.476Z,35.50
2023-03-20T11:22:19.323Z,21.20
2023-03-20T11:24:48.927Z,19.10
2023-03-20T11:27:33.552Z,19.30
2023-03-20T11:30:05.242Z,21.30
2023-03-20T11:32:35.346Z,21.20
2023-03-20T11:35:27.634Z,18.90
2023-03-20T11:38:07.359Z,20.10
2023-03-20T11:40:36.692Z,19.80
2023-03-20T11:43:11.029Z,23.40
2023-03-20T11:45:43.414Z,20.50
2023-03-20T11:48:36.993Z,22.20
2023-03-20T11:51:07.457Z,19.00
2023-03-20T11:53:48.245Z,19.70
2023-03-20T11:56:26.960Z,18.00
2023-03-20T11:59:03.725Z,21.10
2023-03-20T12:01:58.497Z,20.70
2023-03-20T12:04:38.001Z,19.00
2023-03-20T12:07:18.047Z,21.90
2023-03-20T12:09:52.683Z,25.30
2023-03-20T12:12:37.145Z,23.40
2023-03-20T12:15:36.964Z,23.10
2023-03-20T12:18:30.067Z,23.40
2023-03-20T12:21:07.730Z,26.50
2023-03-20T12:23:40.017Z,30.40
2023-03-20T12:26:23.564Z,28.80
2023-03-20T12:28:58.394Z,28.50
2023-03-20T12:31:27.288Z,29.90
2023-03-20T12:34:02.337Z,28.80
2023-03-20T12:36:39.385Z,31.40
2023-03-20T12:39:12.553Z,27.00
2023-03-20T12:44:28.374Z,32.00
2023-03-20T12:46:56.671Z,32.00
2023-03-20T12:49:52.731Z,34.40
2023-03-20T12:52:48.962Z,38.00
2023-03-20T12:55:31.777Z,32.70
2023-03-20T12:58:22.787Z,27.80
2023-03-20T13:00:57.196Z,33.10
2023-03-20T13:03:46.303Z,30.40
2023-03-20T13:06:52.639Z,33.10
2023-03-20T13:09:59.546Z,31.10
2023-03-20T13:12:51.239Z,29.70
2023-03-20T13:15:36.159Z,27.30
2023-03-20T13:18:22.411Z,26.70
2023-03-20T13:20:57.360Z,28.70
2023-03-20T13:23:33.727Z,34.10
2023-03-20T13:26:07.886Z,29.30
2023-03-20T13:28:56.265Z,30.10
2023-03-20T13:31:28.092Z,34.10
2023-03-20T13:34:21.075Z,30.30
2023-03-20T13:37:23.393Z,29.50
2023-03-20T13:39:59.767Z,31.40
2023-03-20T13:42:31.602Z,27.70
2023-03-20T13:45:18.101Z,30.00
2023-03-20T13:47:46.520Z,32.10
2023-03-20T13:50:49.803Z,28.80
2023-03-20T13:53:59.101Z,32.10
2023-03-20T13:56:42.727Z,26.20
2023-03-20T13:59:35.788Z,27.90
2023-03-20T14:02:18.395Z,27.80
2023-03-20T14:04:48.244Z,26.00
2023-03-20T14:07:33.752Z,25.10
2023-03-20T14:10:21.905Z,23.70
2023-03-20T14:12:57.735Z,27.40
2023-03-20T14:15:27.955Z,27.80
2023-03-20T14:17:56.512Z,28.20
2023-03-20T14:20:53.271Z,29.10
2023-03-20T14:23:35.793Z,29.40
2023-03-20T14:26:11.531Z,30.30
2023-03-20T14:29:05.524Z,32.10
2023-03-20T14:31:37.918Z,28.90
2023-03-20T14:34:11.960Z,28.60
2023-03-20T14:37:00.632Z,32.20
2023-03-20T14:39:45.858Z,30.20
2023-03-20T14:42:19.760Z,30.60
2023-03-20T14:45:21.694Z,34.40
2023-03-20T14:48:22.078Z,30.90
2023-03-20T14:50:51.943Z,32.00
2023-03-20T14:53:24.705Z,35.60
2023-03-20T14:56:02.250Z,30.40
2023-03-20T14:58:33.765Z,32.10
2023-03-20T15:01:03.852Z,32.10
2023-03-20T15:03:32.178Z,30.60
2023-03-20T15:06:02.304Z,36.40
2023-03-20T15:08:36.092Z,34.90
2023-03-20T15:11:08.923Z,64.00
2023-03-20T15:13:36.992Z,43.20
2023-03-20T15:16:07.847Z,37.90
2023-03-20T15:18:56.327Z,31.70
2023-03-20T15:21:38.583Z,33.00
2023-03-20T15:24:08.767Z,32.60
2023-03-20T15:26:36.812Z,31.30
2023-03-20T15:29:11.177Z,32.50
2023-03-20T15:31:41.834Z,34.60
2023-03-20T15:34:21.541Z,32.50
2023-03-20T15:36:49.852Z,34.90
2023-03-20T15:39:22.822Z,38.90
2023-03-20T15:42:15.300Z,35.20
2023-03-20T15:44:45.283Z,39.80
2023-03-20T15:47:21.580Z,44.70
2023-03-20T15:49:53.865Z,38.30
2023-03-20T15:52:29.151Z,40.20
2023-03-20T15:54:58.371Z,40.60
2023-03-20T15:57:35.456Z,37.90
2023-03-20T16:00:08.212Z,41.90
2023-03-20T16:02:36.912Z,40.90
2023-03-20T16:05:05.880Z,42.80
2023-03-20T16:07:34.407Z,41.50
2023-03-20T16:10:02.830Z,40.60
2023-03-20T16:12:35.839Z,44.20
2023-03-20T16:15:05.977Z,47.40
2023-03-20T16:17:36.234Z,44.10
2023-03-20T16:20:05.066Z,39.80
2023-03-20T16:22:33.575Z,44.00
2023-03-20T16:25:01.926Z,43.70
2023-03-20T16:27:36.439Z,45.00
2023-03-20T16:30:12.458Z,41.20
2023-03-20T16:32:42.122Z,39.90
2023-03-20T16:35:32.437Z,39.40
2023-03-20T16:38:01.455Z,42.60
2023-03-20T16:40:33.004Z,38.60
2023-03-20T16:43:30.673Z,42.00
2023-03-20T16:46:03.827Z,42.80
2023-03-20T16:48:32.719Z,44.90
2023-03-20T16:51:04.150Z,42.90
2023-03-20T16:53:38.192Z,42.40
2023-03-20T16:56:11.840Z,42.90
2023-03-20T16:58:41.377Z,50.00
2023-03-20T17:01:19.636Z,47.00
2023-03-20T17:03:50.666Z,51.80
2023-03-20T17:06:21.694Z,49.40
2023-03-20T17:08:53.806Z,47.40
2023-03-20T17:11:23.047Z,47.70
2023-03-20T17:13:56.347Z,52.10
2023-03-20T17:16:24.753Z,43.80
2023-03-20T17:19:00.649Z,49.80
2023-03-20T17:21:31.663Z,46.70
2023-03-20T17:23:59.855Z,52.70
2023-03-20T17:26:27.887Z,52.50
2023-03-20T17:28:56.614Z,47.70
2023-03-20T17:31:24.985Z,45.50
2023-03-20T17:33:56.633Z,47.00
2023-03-20T17:36:27.727Z,52.40
2023-03-20T17:38:56.368Z,55.30
2023-03-20T17:41:25.815Z,57.20
2023-03-20T17:43:59.512Z,58.90
2023-03-20T17:46:29.635Z,55.30
2023-03-20T17:49:01.749Z,52.60
2023-03-20T17:51:30.092Z,53.80
2023-03-20T17:53:58.106Z,53.90
2023-03-20T17:56:32.614Z,59.10
2023-03-20T17:59:02.930Z,52.90
2023-03-20T18:01:34.066Z,54.90
2023-03-20T18:04:02.343Z,57.40
2023-03-20T18:06:32.883Z,54.40
2023-03-20T18:09:02.457Z,55.00
2023-03-20T18:11:33.315Z,50.40
2023-03-20T18:14:06.702Z,57.00
2023-03-20T18:16:34.920Z,61.50
2023-03-20T18:19:03.871Z,56.50
2023-03-20T18:21:34.312Z,60.40
2023-03-20T18:24:03.313Z,53.70
2023-03-20T18:26:33.107Z,58.80
2023-03-20T18:29:01.154Z,59.50
2023-03-20T18:31:29.674Z,65.10
2023-03-20T18:33:58.534Z,63.60
2023-03-20T18:36:28.114Z,72.00
2023-03-20T18:38:56.228Z,73.40
2023-03-20T18:41:25.005Z,70.90
2023-03-20T18:43:55.609Z,64.40
2023-03-20T18:46:24.717Z,71.30
2023-03-20T18:49:01.024Z,71.30
2023-03-20T18:51:29.356Z,68.00
2023-03-20T18:53:57.425Z,66.10
2023-03-20T18:56:25.931Z,70.80
2023-03-20T18:58:54.242Z,69.40
2023-03-20T19:01:22.639Z,62.40
2023-03-20T19:03:53.845Z,66.80
2023-03-20T19:06:23.581Z,66.10
2023-03-20T19:08:52.036Z,63.90
2023-03-20T19:11:21.704Z,68.00
2023-03-20T19:13:52.746Z,61.80
2023-03-20T19:16:29.360Z,58.10
2023-03-20T19:18:59.758Z,57.20
2023-03-20T19:21:29.202Z,56.00
2023-03-20T19:24:02.600Z,57.10
2023-03-20T19:26:31.826Z,58.90
2023-03-20T19:29:01.392Z,60.50
2023-03-20T19:31:31.369Z,52.40
2023-03-20T19:33:59.733Z,52.10
2023-03-20T19:36:35.932Z,58.60
2023-03-20T19:39:06.789Z,63.30
2023-03-20T19:41:35.436Z,67.00
2023-03-20T19:44:03.491Z,65.60
2023-03-20T19:46:42.528Z,66.10
2023-03-20T19:49:19.817Z,71.90
2023-03-20T19:51:49.191Z,77.40
2023-03-20T19:54:17.457Z,77.90
2023-03-20T19:56:46.008Z,83.30
2023-03-20T19:59:17.138Z,70.90
2023-03-20T20:01:46.152Z,76.60
2023-03-20T20:04:15.084Z,71.20
2023-03-20T20:06:43.587Z,65.10
2023-03-20T20:09:14.902Z,69.60
2023-03-20T20:11:44.141Z,64.20
2023-03-20T20:14:14.802Z,67.70
2023-03-20T20:16:45.609Z,65.50
2023-03-20T20:19:13.726Z,68.50
2023-03-20T20:24:31.435Z,59.80
2023-03-20T20:27:17.084Z,60.50
2023-03-20T20:29:53.752Z,64.80
2023-03-20T20:32:23.976Z,62.70
2023-03-20T20:40:34.931Z,60.80
2023-03-20T20:43:08.412Z,59.40
2023-03-20T20:45:43.611Z,59.70
2023-03-20T20:48:12.752Z,54.50
2023-03-20T20:50:43.590Z,61.70
2023-03-20T20:53:16.509Z,59.90
2023-03-20T20:55:48.127Z,62.60
2023-03-20T20:58:17.845Z,68.70
2023-03-20T21:00:52.532Z,64.50
2023-03-20T21:03:25.174Z,73.20
2023-03-20T21:05:53.916Z,62.40
2023-03-20T21:08:23.035Z,72.40
2023-03-20T21:10:55.320Z,72.70
2023-03-20T21:13:24.580Z,75.60
2023-03-20T21:15:59.689Z,68.30
2023-03-20T21:18:28.770Z,63.30
2023-03-20T21:21:17.364Z,68.60
2023-03-20T21:23:45.314Z,84.30
2023-03-20T21:26:14.910Z,78.20
2023-03-20T21:28:43.027Z,74.50
2023-03-20T21:31:24.417Z,79.20
2023-03-20T21:33:54.279Z,79.40
2023-03-20T21:36:23.399Z,82.40
2023-03-20T21:39:09.010Z,85.60
2023-03-20T21:41:40.737Z,76.90
2023-03-20T21:44:16.594Z,81.90
2023-03-20T21:47:22.675Z,71.40
2023-03-20T21:53:06.026Z,74.30
2023-03-20T21:58:53.805Z,78.20
2023-03-20T22:01:39.734Z,69.70
2023-03-20T22:04:31.802Z,78.20
2023-03-20T22:07:18.934Z,74.50
2023-03-20T22:10:03.606Z,79.80
2023-03-20T22:27:03.352Z,80.30
2023-03-20T22:32:44.862Z,75.70
2023-03-20T22:35:38.482Z,79.40
2023-03-20T22:41:18.391Z,87.50
2023-03-20T22:46:16.778Z,85.70
2023-03-20T22:48:48.356Z,79.80
2023-03-20T22:51:18.276Z,80.90
2023-03-20T22:53:51.923Z,90.30
2023-03-20T22:56:22.691Z,90.80
2023-03-20T22:58:50.658Z,90.10
2023-03-20T23:01:20.598Z,80.00
2023-03-20T23:03:49.274Z,75.50
2023-03-20T23:06:21.845Z,76.50
2023-03-20T23:08:55.375Z,72.20
2023-03-20T23:11:24.886Z,76.20
2023-03-20T23:13:52.929Z,77.20
2023-03-20T23:16:21.586Z,67.00
2023-03-20T23:18:49.714Z,68.70
2023-03-20T23:21:22.125Z,69.80
2023-03-20T23:23:50.176Z,69.90
2023-03-20T23:26:20.711Z,69.60
2023-03-20T23:28:52.074Z,71.40
2023-03-20T23:31:22.428Z,73.40
2023-03-20T23:33:54.209Z,71.10
2023-03-20T23:36:35.472Z,63.20
2023-03-20T23:39:08.617Z,67.30
2023-03-20T23:44:26.294Z,69.30
2023-03-20T23:47:01.388Z,70.30
2023-03-20T23:49:32.169Z,71.50
2023-03-20T23:52:04.246Z,66.50
2023-03-20T23:54:32.577Z,63.80
2023-03-20T23:57:03.011Z,62.90
2023-03-20T23:59:31.329Z,71.70
